createdAt,value
2019-02-06T00:01:05.419Z,11.93
2019-02-06T00:03:34.087Z,15.30
2019-02-06T00:06:02.709Z,12.13
2019-02-06T00:08:31.392Z,11.93
2019-02-06T00:11:00.111Z,11.40
2019-02-06T00:13:29.048Z,11.10
2019-02-06T00:15:57.580Z,13.77
2019-02-06T00:18:26.178Z,13.20
2019-02-06T00:20:54.788Z,11.30
2019-02-06T00:23:23.280Z,13.33
2019-02-06T00:25:51.813Z,13.67
2019-02-06T00:28:20.349Z,10.93
2019-02-06T00:30:49.306Z,12.27
2019-02-06T00:33:17.810Z,10.37
2019-02-06T00:35:46.920Z,11.57
2019-02-06T00:38:15.522Z,12.43
2019-02-06T00:40:44.200Z,12.17
2019-02-06T00:43:12.795Z,10.17
2019-02-06T00:45:41.715Z,10.63
2019-02-06T00:48:10.199Z,11.60
2019-02-06T00:50:38.728Z,10.87
2019-02-06T00:53:07.270Z,11.47
2019-02-06T00:55:35.829Z,10.17
2019-02-06T00:58:04.700Z,11.50
2019-02-06T01:00:33.373Z,10.73
2019-02-06T01:03:02.270Z,10.60
2019-02-06T01:05:38.560Z,10.30
2019-02-06T01:08:01.153Z,10.57
2019-02-06T01:10:29.755Z,9.87
2019-02-06T01:12:58.391Z,10.83
2019-02-06T01:15:27.056Z,10.97
2019-02-06T01:17:56.049Z,9.03
2019-02-06T01:20:24.597Z,12.77
2019-02-06T01:22:53.064Z,12.43
2019-02-06T01:25:21.591Z,15.73
2019-02-06T01:27:50.128Z,10.37
2019-02-06T01:30:23.569Z,10.77
2019-02-06T01:32:52.110Z,9.83
2019-02-06T01:35:20.715Z,9.27
2019-02-06T01:37:49.278Z,11.07
2019-02-06T01:40:19.545Z,9.47
2019-02-06T01:42:48.365Z,9.50
2019-02-06T01:45:19.331Z,12.43
2019-02-06T01:47:47.948Z,9.97
2019-02-06T01:50:18.978Z,9.23
2019-02-06T01:52:48.128Z,9.73
2019-02-06T01:55:17.112Z,11.03
2019-02-06T01:57:45.587Z,7.33
2019-02-06T02:00:22.702Z,11.57
2019-02-06T02:02:51.608Z,9.03
2019-02-06T02:05:21.633Z,10.63
2019-02-06T02:07:51.332Z,8.23
2019-02-06T02:10:20.900Z,9.23
2019-02-06T02:12:51.955Z,9.87
2019-02-06T02:15:20.971Z,10.77
2019-02-06T02:17:49.504Z,10.27
2019-02-06T02:20:23.223Z,10.30
2019-02-06T02:22:52.225Z,9.80
2019-02-06T02:25:21.290Z,13.10
2019-02-06T02:27:49.954Z,12.00
2019-02-06T02:30:27.263Z,7.47
2019-02-06T02:32:55.939Z,10.20
2019-02-06T02:35:24.548Z,9.70
2019-02-06T02:37:53.099Z,10.13
2019-02-06T02:40:21.632Z,12.00
2019-02-06T02:42:51.881Z,9.47
2019-02-06T02:45:20.910Z,10.43
2019-02-06T02:47:49.509Z,12.17
2019-02-06T02:50:19.587Z,12.60
2019-02-06T02:52:48.125Z,9.57
2019-02-06T02:55:16.599Z,13.83
2019-02-06T02:57:45.124Z,8.63
2019-02-06T03:00:20.502Z,12.53
2019-02-06T03:02:59.965Z,10.47
2019-02-06T03:05:30.538Z,11.10
2019-02-06T03:07:59.400Z,9.27
2019-02-06T03:10:28.340Z,11.03
2019-02-06T03:12:57.213Z,10.53
2019-02-06T03:15:26.093Z,12.13
2019-02-06T03:17:54.985Z,10.40
2019-02-06T03:20:23.879Z,11.17
2019-02-06T03:22:52.751Z,11.60
2019-02-06T03:25:21.685Z,11.93
2019-02-06T03:27:50.700Z,10.43
2019-02-06T03:30:20.082Z,9.80
2019-02-06T03:32:48.543Z,9.30
2019-02-06T03:35:17.143Z,10.03
2019-02-06T03:37:45.767Z,11.43
2019-02-06T03:40:17.158Z,8.93
2019-02-06T03:42:46.125Z,9.57
2019-02-06T03:45:15.297Z,10.10
2019-02-06T03:47:43.925Z,10.23
2019-02-06T03:50:17.934Z,11.67
2019-02-06T03:52:46.531Z,9.43
2019-02-06T03:55:15.415Z,10.27
2019-02-06T03:57:44.002Z,9.73
2019-02-06T04:00:19.510Z,11.23
2019-02-06T04:02:48.114Z,9.43
2019-02-06T04:05:16.756Z,10.30
2019-02-06T04:07:45.433Z,10.37
2019-02-06T04:10:18.146Z,10.90
2019-02-06T04:12:46.682Z,10.40
2019-02-06T04:15:15.764Z,10.73
2019-02-06T04:17:44.401Z,12.77
2019-02-06T04:20:17.197Z,13.27
2019-02-06T04:22:45.803Z,10.67
2019-02-06T04:25:15.975Z,11.73
2019-02-06T04:27:44.642Z,11.13
2019-02-06T04:30:18.539Z,9.83
2019-02-06T04:32:47.307Z,11.33
2019-02-06T04:35:16.496Z,9.90
2019-02-06T04:37:45.252Z,11.93
2019-02-06T04:40:18.380Z,11.10
2019-02-06T04:42:47.539Z,14.10
2019-02-06T04:45:18.605Z,11.00
2019-02-06T04:47:47.382Z,11.07
2019-02-06T04:50:17.296Z,11.20
2019-02-06T04:52:46.007Z,9.20
2019-02-06T04:55:16.749Z,11.20
2019-02-06T04:57:45.727Z,11.53
2019-02-06T05:00:28.265Z,8.87
2019-02-06T05:02:56.936Z,10.83
2019-02-06T05:05:25.531Z,13.50
2019-02-06T05:07:54.078Z,12.03
2019-02-06T05:10:22.532Z,10.83
2019-02-06T05:12:51.097Z,11.73
2019-02-06T05:15:19.814Z,11.20
2019-02-06T05:17:48.448Z,13.50
2019-02-06T05:20:25.628Z,10.80
2019-02-06T05:22:54.128Z,10.00
2019-02-06T05:25:23.129Z,10.67
2019-02-06T05:27:51.750Z,11.80
2019-02-06T05:30:20.291Z,9.83
2019-02-06T05:32:48.814Z,9.83
2019-02-06T05:35:17.434Z,13.03
2019-02-06T05:37:46.032Z,13.97
2019-02-06T05:40:14.620Z,9.07
2019-02-06T05:42:43.564Z,13.30
2019-02-06T05:45:13.258Z,12.07
2019-02-06T05:47:41.852Z,9.97
2019-02-06T05:50:13.691Z,12.43
2019-02-06T05:52:42.222Z,10.57
2019-02-06T05:55:11.233Z,12.10
2019-02-06T05:57:39.755Z,10.83
2019-02-06T06:00:11.402Z,15.83
2019-02-06T06:02:39.935Z,11.30
2019-02-06T06:05:08.646Z,12.03
2019-02-06T06:07:45.117Z,10.83
2019-02-06T06:10:10.429Z,10.07
2019-02-06T06:12:38.900Z,10.60
2019-02-06T06:15:09.394Z,12.83
2019-02-06T06:17:37.856Z,9.43
2019-02-06T06:20:12.408Z,11.77
2019-02-06T06:22:41.015Z,13.40
2019-02-06T06:25:12.327Z,11.17
2019-02-06T06:27:40.887Z,12.03
2019-02-06T06:30:14.854Z,10.43
2019-02-06T06:32:43.328Z,12.90
2019-02-06T06:35:13.663Z,11.23
2019-02-06T06:37:42.341Z,10.63
2019-02-06T06:40:17.134Z,10.00
2019-02-06T06:42:46.136Z,11.67
2019-02-06T06:45:24.986Z,12.23
2019-02-06T06:47:53.611Z,12.03
2019-02-06T06:50:26.465Z,11.10
2019-02-06T06:52:55.068Z,17.47
2019-02-06T06:55:24.077Z,12.23
2019-02-06T06:57:52.723Z,11.90
2019-02-06T07:00:24.164Z,11.67
2019-02-06T07:02:52.994Z,13.73
2019-02-06T07:05:21.759Z,11.73
2019-02-06T07:07:51.124Z,12.37
2019-02-06T07:10:20.258Z,14.13
2019-02-06T07:12:48.919Z,12.30
2019-02-06T07:15:28.404Z,12.23
2019-02-06T07:17:56.863Z,10.97
2019-02-06T07:20:25.402Z,13.07
2019-02-06T07:22:54.110Z,12.10
2019-02-06T07:25:22.728Z,15.70
2019-02-06T07:27:51.256Z,14.80
2019-02-06T07:30:30.815Z,11.50
2019-02-06T07:32:59.485Z,14.17
2019-02-06T07:35:28.120Z,15.53
2019-02-06T07:37:57.908Z,12.83
2019-02-06T07:40:26.520Z,15.17
2019-02-06T07:42:55.193Z,11.83
2019-02-06T07:45:23.815Z,13.75
2019-02-06T07:47:52.387Z,14.90
2019-02-06T07:50:26.373Z,13.40
2019-02-06T07:52:55.416Z,14.57
2019-02-06T07:55:24.038Z,13.20
2019-02-06T07:57:52.740Z,15.27
2019-02-06T08:00:21.366Z,14.00
2019-02-06T08:02:50.061Z,13.27
2019-02-06T08:05:20.254Z,17.03
2019-02-06T08:07:49.503Z,17.07
2019-02-06T08:10:29.095Z,16.27
2019-02-06T08:12:57.733Z,16.03
2019-02-06T08:15:26.417Z,14.90
2019-02-06T08:17:55.146Z,14.83
2019-02-06T08:20:24.832Z,12.73
2019-02-06T08:22:54.021Z,16.77
2019-02-06T08:25:24.126Z,16.57
2019-02-06T08:27:52.830Z,16.90
2019-02-06T08:30:30.467Z,17.90
2019-02-06T08:32:59.125Z,19.50
2019-02-06T08:35:27.815Z,17.13
2019-02-06T08:37:56.746Z,18.53
2019-02-06T08:40:30.231Z,19.80
2019-02-06T08:42:58.943Z,23.03
2019-02-06T08:45:27.613Z,22.10
2019-02-06T08:47:56.244Z,18.67
2019-02-06T08:50:25.805Z,16.40
2019-02-06T08:52:54.473Z,18.67
2019-02-06T08:55:25.827Z,16.47
2019-02-06T08:57:54.929Z,17.20
2019-02-06T09:00:34.659Z,17.20
2019-02-06T09:03:03.479Z,15.63
2019-02-06T09:05:32.222Z,14.87
2019-02-06T09:08:00.826Z,14.40
2019-02-06T09:10:30.802Z,16.27
2019-02-06T09:13:00.301Z,17.23
2019-02-06T09:15:29.060Z,13.93
2019-02-06T09:17:57.831Z,13.90
2019-02-06T09:20:27.722Z,15.50
2019-02-06T09:22:56.594Z,17.73
2019-02-06T09:25:26.627Z,13.77
2019-02-06T09:27:55.554Z,15.87
2019-02-06T09:30:26.089Z,17.47
2019-02-06T09:32:55.585Z,17.60
2019-02-06T09:35:24.502Z,16.67
2019-02-06T09:37:53.416Z,15.60
2019-02-06T09:40:24.870Z,16.60
2019-02-06T09:42:53.586Z,16.47
2019-02-06T09:45:22.380Z,15.80
2019-02-06T09:47:51.230Z,20.93
2019-02-06T09:50:28.325Z,16.17
2019-02-06T09:52:56.927Z,16.10
2019-02-06T09:55:25.619Z,17.30
2019-02-06T09:57:54.331Z,15.77
2019-02-06T10:00:28.623Z,17.47
2019-02-06T10:02:57.338Z,16.83
2019-02-06T10:05:26.034Z,16.77
2019-02-06T10:07:54.660Z,16.87
2019-02-06T10:10:25.546Z,18.17
2019-02-06T10:12:54.200Z,16.43
2019-02-06T10:15:25.437Z,15.47
2019-02-06T10:17:54.913Z,17.87
2019-02-06T10:20:26.110Z,14.63
2019-02-06T10:22:54.664Z,16.20
2019-02-06T10:25:24.340Z,15.37
2019-02-06T10:27:52.876Z,15.13
2019-02-06T10:30:30.375Z,14.67
2019-02-06T10:32:59.428Z,16.07
2019-02-06T10:35:28.154Z,16.07
2019-02-06T10:37:56.771Z,14.03
2019-02-06T10:40:25.552Z,14.90
2019-02-06T10:42:54.230Z,14.83
2019-02-06T10:45:22.871Z,15.77
2019-02-06T10:47:51.469Z,16.57
2019-02-06T10:50:31.475Z,13.80
2019-02-06T10:53:00.063Z,17.30
2019-02-06T10:55:29.060Z,18.13
2019-02-06T10:57:57.682Z,17.00
2019-02-06T11:00:44.000Z,15.70
2019-02-06T11:03:12.618Z,14.63
2019-02-06T11:05:41.229Z,14.27
2019-02-06T11:08:09.787Z,17.93
2019-02-06T11:10:38.279Z,15.03
2019-02-06T11:13:07.699Z,16.20
2019-02-06T11:15:36.691Z,15.50
2019-02-06T11:18:05.912Z,15.73
2019-02-06T11:20:37.191Z,17.27
2019-02-06T11:23:06.351Z,14.50
2019-02-06T11:25:35.565Z,17.93
2019-02-06T11:28:04.455Z,17.17
2019-02-06T11:30:35.967Z,14.60
2019-02-06T11:33:05.448Z,16.07
2019-02-06T11:35:34.111Z,15.50
2019-02-06T11:38:02.812Z,15.90
2019-02-06T11:40:31.428Z,14.83
2019-02-06T11:43:00.045Z,15.17
2019-02-06T11:45:33.463Z,16.40
2019-02-06T11:48:02.204Z,16.17
2019-02-06T11:50:41.109Z,16.47
2019-02-06T11:53:14.878Z,14.93
2019-02-06T11:55:43.485Z,16.17
2019-02-06T11:58:12.122Z,14.93
2019-02-06T12:00:48.316Z,18.47
2019-02-06T12:03:16.568Z,17.80
2019-02-06T12:05:45.192Z,16.43
2019-02-06T12:08:13.817Z,15.30
2019-02-06T12:10:42.442Z,17.30
2019-02-06T12:13:11.153Z,14.27
2019-02-06T12:15:39.791Z,22.00
2019-02-06T12:18:08.513Z,17.13
2019-02-06T12:20:37.754Z,15.23
2019-02-06T12:23:06.355Z,18.30
2019-02-06T12:25:35.232Z,15.83
2019-02-06T12:28:05.169Z,14.97
2019-02-06T12:30:41.350Z,15.33
2019-02-06T12:33:10.037Z,15.47
2019-02-06T12:35:38.723Z,15.33
2019-02-06T12:38:07.365Z,17.37
2019-02-06T12:40:36.169Z,16.23
2019-02-06T12:43:06.754Z,17.00
2019-02-06T12:45:35.760Z,13.93
2019-02-06T12:48:05.400Z,17.33
2019-02-06T12:50:34.090Z,18.37
2019-02-06T12:53:02.795Z,14.80
2019-02-06T12:55:50.690Z,17.63
2019-02-06T12:58:19.563Z,14.47
2019-02-06T13:00:48.118Z,14.93
2019-02-06T13:03:16.725Z,20.67
2019-02-06T13:05:45.423Z,14.67
2019-02-06T13:08:17.127Z,18.83
2019-02-06T13:10:44.394Z,13.83
2019-02-06T13:13:13.287Z,18.07
2019-02-06T13:15:41.903Z,14.90
2019-02-06T13:18:10.412Z,19.40
2019-02-06T13:20:38.917Z,19.77
2019-02-06T13:23:07.533Z,17.77
2019-02-06T13:25:36.087Z,16.27
2019-02-06T13:28:05.179Z,18.67
2019-02-06T13:30:35.976Z,19.00
2019-02-06T13:33:06.784Z,17.33
2019-02-06T13:35:36.789Z,19.93
2019-02-06T13:38:05.608Z,17.10
2019-02-06T13:40:44.732Z,17.10
2019-02-06T13:43:06.073Z,19.03
2019-02-06T13:45:40.206Z,18.80
2019-02-06T13:48:08.876Z,16.73
2019-02-06T13:50:37.574Z,16.30
2019-02-06T13:53:06.376Z,15.20
2019-02-06T13:55:35.064Z,17.67
2019-02-06T13:58:04.579Z,18.03
2019-02-06T14:00:39.015Z,19.27
2019-02-06T14:03:08.017Z,14.23
2019-02-06T14:05:37.083Z,15.87
2019-02-06T14:08:11.468Z,19.43
2019-02-06T14:10:40.080Z,14.60
2019-02-06T14:13:08.780Z,14.40
2019-02-06T14:15:43.415Z,15.20
2019-02-06T14:18:12.260Z,14.93
2019-02-06T14:20:41.436Z,16.33
2019-02-06T14:23:15.967Z,13.93
2019-02-06T14:25:50.835Z,13.17
2019-02-06T14:28:45.157Z,13.37
2019-02-06T14:31:45.741Z,13.83
2019-02-06T14:34:38.465Z,15.50
2019-02-06T14:37:29.850Z,14.87
2019-02-06T14:40:26.674Z,14.37
2019-02-06T14:43:12.880Z,14.43
2019-02-06T14:45:59.404Z,12.53
2019-02-06T14:48:42.868Z,15.50
2019-02-06T14:51:14.538Z,16.77
2019-02-06T14:53:51.857Z,11.97
2019-02-06T14:56:38.502Z,13.10
2019-02-06T14:59:26.778Z,16.00
2019-02-06T15:01:58.395Z,14.63
2019-02-06T15:04:35.714Z,17.23
2019-02-06T15:07:12.822Z,18.60
2019-02-06T15:09:44.460Z,13.83
2019-02-06T15:12:35.755Z,15.90
2019-02-06T15:15:16.075Z,16.50
2019-02-06T15:17:53.526Z,19.60
2019-02-06T15:20:25.435Z,22.33
2019-02-06T15:23:09.108Z,17.20
2019-02-06T15:25:52.725Z,20.23
2019-02-06T15:28:36.097Z,16.47
2019-02-06T15:31:42.732Z,14.97
2019-02-06T15:34:45.865Z,14.83
2019-02-06T15:37:33.960Z,16.60
2019-02-06T15:40:17.503Z,19.40
2019-02-06T15:42:52.079Z,14.53
2019-02-06T15:45:23.640Z,19.37
2019-02-06T15:48:06.887Z,15.03
2019-02-06T15:50:46.778Z,16.70
2019-02-06T15:53:30.491Z,17.07
2019-02-06T15:56:19.986Z,15.27
2019-02-06T15:59:11.309Z,13.30
2019-02-06T16:02:14.522Z,12.73
2019-02-06T16:05:16.574Z,13.83
2019-02-06T16:07:51.124Z,18.23
2019-02-06T16:10:46.738Z,14.30
2019-02-06T16:13:29.902Z,17.47
2019-02-06T16:16:01.537Z,15.30
2019-02-06T16:18:42.187Z,15.77
2019-02-06T16:21:19.644Z,18.47
2019-02-06T16:23:54.031Z,15.93
2019-02-06T16:26:48.615Z,17.93
2019-02-06T16:29:44.246Z,19.33
2019-02-06T16:32:33.677Z,16.93
2019-02-06T16:35:27.277Z,17.80
2019-02-06T16:38:31.799Z,24.23
2019-02-06T16:41:19.992Z,13.73
2019-02-06T16:44:00.656Z,19.63
2019-02-06T16:46:38.287Z,19.67
2019-02-06T16:49:15.778Z,17.90
2019-02-06T16:51:53.395Z,22.03
2019-02-06T16:54:33.802Z,17.00
2019-02-06T16:57:08.295Z,15.37
2019-02-06T16:59:48.764Z,19.33
2019-02-06T17:02:45.994Z,22.03
2019-02-06T17:05:31.095Z,17.93
2019-02-06T17:08:16.221Z,20.00
2019-02-06T17:11:02.755Z,21.77
2019-02-06T17:13:40.191Z,16.47
2019-02-06T17:16:23.860Z,16.40
2019-02-06T17:19:07.474Z,16.90
2019-02-06T17:21:54.212Z,16.43
2019-02-06T17:24:37.528Z,17.30
2019-02-06T17:27:17.974Z,21.13
2019-02-06T17:29:52.518Z,15.20
2019-02-06T17:32:29.753Z,16.33
2019-02-06T17:35:18.076Z,17.23
2019-02-06T17:38:13.408Z,13.93
2019-02-06T17:40:53.997Z,15.50
2019-02-06T17:43:52.867Z,19.17
2019-02-06T17:46:36.382Z,14.57
2019-02-06T17:49:19.662Z,21.17
2019-02-06T17:51:56.888Z,14.23
2019-02-06T17:54:37.475Z,14.57
2019-02-06T17:57:06.162Z,13.30
2019-02-06T17:59:34.766Z,13.90
2019-02-06T18:02:03.341Z,14.40
2019-02-06T18:04:32.005Z,14.50
2019-02-06T18:07:00.656Z,17.83
2019-02-06T18:09:29.173Z,18.07
2019-02-06T18:11:57.669Z,16.40
2019-02-06T18:14:26.336Z,13.93
2019-02-06T18:16:54.821Z,13.87
2019-02-06T18:19:23.584Z,16.07
2019-02-06T18:21:52.544Z,15.33
2019-02-06T18:24:21.111Z,17.47
2019-02-06T18:26:49.713Z,14.30
2019-02-06T18:29:18.412Z,13.20
2019-02-06T18:31:46.948Z,14.80
2019-02-06T18:34:15.654Z,15.63
2019-02-06T18:36:44.280Z,13.82
2019-02-06T18:39:13.046Z,13.77
2019-02-06T18:41:41.688Z,12.60
2019-02-06T18:44:10.369Z,14.77
2019-02-06T18:46:38.942Z,14.23
2019-02-06T18:49:07.569Z,12.83
2019-02-06T18:51:36.167Z,13.43
2019-02-06T18:54:06.653Z,16.03
2019-02-06T18:56:35.269Z,14.97
2019-02-06T18:59:04.964Z,14.37
2019-02-06T19:01:33.638Z,13.47
2019-02-06T19:04:02.258Z,14.07
2019-02-06T19:06:30.998Z,14.80
2019-02-06T19:08:59.495Z,14.40
2019-02-06T19:11:28.221Z,15.70
2019-02-06T19:13:58.433Z,16.00
2019-02-06T19:16:27.186Z,15.53
2019-02-06T19:18:56.239Z,16.20
2019-02-06T19:21:24.965Z,17.60
2019-02-06T19:23:55.334Z,19.93
2019-02-06T19:26:23.824Z,20.77
2019-02-06T19:28:52.468Z,20.63
2019-02-06T19:31:21.097Z,21.27
2019-02-06T19:33:49.720Z,19.53
2019-02-06T19:36:18.247Z,19.57
2019-02-06T19:38:46.867Z,21.70
2019-02-06T19:41:15.423Z,18.27
2019-02-06T19:43:45.103Z,21.00
2019-02-06T19:46:13.578Z,19.20
2019-02-06T19:48:42.266Z,22.83
2019-02-06T19:51:12.360Z,21.37
2019-02-06T19:53:41.064Z,20.97
2019-02-06T19:56:12.473Z,21.63
2019-02-06T19:58:41.227Z,24.23
2019-02-06T20:01:11.429Z,21.67
2019-02-06T20:03:40.008Z,21.53
2019-02-06T20:06:08.612Z,20.87
2019-02-06T20:08:37.177Z,20.53
2019-02-06T20:11:05.878Z,22.43
2019-02-06T20:13:38.000Z,22.93
2019-02-06T20:16:09.387Z,24.33
2019-02-06T20:18:37.970Z,20.87
2019-02-06T20:21:06.607Z,20.00
2019-02-06T20:23:35.155Z,23.20
2019-02-06T20:26:03.857Z,21.97
2019-02-06T20:28:32.401Z,23.93
2019-02-06T20:31:01.151Z,21.83
2019-02-06T20:33:31.240Z,24.73
2019-02-06T20:35:59.771Z,19.47
2019-02-06T20:38:28.340Z,21.63
2019-02-06T20:40:56.966Z,20.67
2019-02-06T20:43:25.525Z,24.83
2019-02-06T20:45:55.675Z,21.43
2019-02-06T20:48:24.419Z,21.17
2019-02-06T20:50:54.519Z,19.57
2019-02-06T20:53:23.090Z,22.33
2019-02-06T20:55:51.715Z,21.67
2019-02-06T20:58:20.257Z,19.37
2019-02-06T21:00:49.717Z,20.03
2019-02-06T21:03:18.192Z,23.30
2019-02-06T21:05:46.730Z,22.77
2019-02-06T21:08:15.280Z,23.83
2019-02-06T21:10:43.844Z,19.27
2019-02-06T21:13:12.395Z,24.10
2019-02-06T21:15:40.955Z,24.43
2019-02-06T21:18:09.576Z,20.63
2019-02-06T21:20:38.246Z,22.60
2019-02-06T21:23:06.936Z,24.33
2019-02-06T21:25:35.596Z,22.17
2019-02-06T21:28:04.226Z,24.80
2019-02-06T21:30:41.070Z,25.17
2019-02-06T21:33:09.718Z,22.90
2019-02-06T21:35:39.591Z,22.97
2019-02-06T21:38:08.286Z,26.10
2019-02-06T21:40:37.976Z,19.13
2019-02-06T21:43:07.292Z,25.40
2019-02-06T21:45:36.101Z,25.23
2019-02-06T21:48:05.575Z,21.27
2019-02-06T21:50:34.236Z,23.40
2019-02-06T21:53:02.788Z,21.87
2019-02-06T21:55:31.432Z,21.50
2019-02-06T21:58:00.074Z,19.27
2019-02-06T22:00:31.977Z,22.83
2019-02-06T22:03:00.540Z,20.27
2019-02-06T22:05:29.203Z,19.67
2019-02-06T22:07:57.809Z,18.80
2019-02-06T22:10:26.405Z,18.20
2019-02-06T22:12:55.114Z,21.30
2019-02-06T22:15:31.575Z,17.20
2019-02-06T22:18:00.317Z,18.63
2019-02-06T22:20:29.296Z,19.37
2019-02-06T22:22:57.948Z,20.60
2019-02-06T22:25:26.628Z,18.83
2019-02-06T22:27:55.188Z,17.90
2019-02-06T22:30:25.557Z,18.37
2019-02-06T22:32:54.278Z,18.10
2019-02-06T22:35:23.349Z,18.07
2019-02-06T22:37:51.901Z,16.10
2019-02-06T22:40:23.520Z,17.27
2019-02-06T22:42:52.194Z,16.17
2019-02-06T22:45:22.728Z,17.60
2019-02-06T22:47:51.351Z,16.83
2019-02-06T22:50:22.631Z,18.60
2019-02-06T22:52:51.087Z,15.97
2019-02-06T22:55:19.760Z,16.73
2019-02-06T22:57:48.297Z,18.90
2019-02-06T23:00:39.664Z,20.83
2019-02-06T23:03:08.361Z,13.53
2019-02-06T23:05:36.895Z,15.67
2019-02-06T23:08:05.678Z,18.23
2019-02-06T23:10:36.810Z,18.47
2019-02-06T23:13:04.544Z,16.43
2019-02-06T23:15:33.556Z,15.47
2019-02-06T23:18:02.176Z,16.60
2019-02-06T23:20:30.726Z,17.83
2019-02-06T23:22:59.334Z,18.10
2019-02-06T23:25:27.827Z,20.27
2019-02-06T23:27:56.383Z,22.53
2019-02-06T23:30:24.981Z,14.73
2019-02-06T23:32:53.532Z,18.33
2019-02-06T23:35:22.083Z,16.77
2019-02-06T23:37:50.617Z,17.37
2019-02-06T23:40:19.221Z,19.17
2019-02-06T23:42:47.768Z,21.57
2019-02-06T23:45:16.532Z,19.37
2019-02-06T23:47:45.020Z,17.43
2019-02-06T23:50:17.643Z,18.17
2019-02-06T23:52:46.260Z,19.33
2019-02-06T23:55:14.940Z,16.27
2019-02-06T23:57:43.555Z,17.17
